Time;durP1;ratioP1;P1;durP2;ratioP2;P2;SDS_P1;SDS_P2;PMS_P1;PMS_P2;Temp;Humidity;BMP_temperature;BMP_pressure;BME280_temperature;BME280_humidity;BME280_pressure;Samples;Min_cycle;Max_cycle;Signal;HPM_P1;HPM_P2
2022/09/05 00:02:05;;;;;;;3.53;3.22;;;21.60;95.70;;;;;;10125692;29;20744;-83
2022/09/05 00:07:19;;;;;;;4.25;2.88;;;21.50;95.70;;;;;;10125048;29;20247;-83
2022/09/05 00:12:42;;;;;;;3.67;2.90;;;21.60;95.50;;;;;;10125644;29;20268;-83
2022/09/05 00:17:50;;;;;;;2.80;2.60;;;21.60;95.40;;;;;;10125250;29;20236;-83
2022/09/05 00:23:28;;;;;;;2.70;2.50;;;21.40;95.50;;;;;;10124939;29;20402;-83
2022/09/05 00:29:13;;;;;;;3.63;2.60;;;21.50;95.40;;;;;;10152075;29;20642;-82
2022/09/05 00:34:55;;;;;;;2.63;2.38;;;21.60;95.20;;;;;;10230839;28;20728;-83
2022/09/05 00:40:24;;;;;;;2.67;2.40;;;21.60;95.20;;;;;;10247689;28;20233;-83
2022/09/05 00:45:38;;;;;;;4.50;2.90;;;21.50;95.20;;;;;;10207759;29;20250;-82
2022/09/05 00:50:56;;;;;;;3.70;2.50;;;21.50;95.00;;;;;;10247784;29;20666;-82
2022/09/05 00:56:02;;;;;;;2.78;2.33;;;21.50;94.90;;;;;;10229761;28;20264;-83
2022/09/05 01:01:31;;;;;;;2.50;2.30;;;21.50;94.90;;;;;;10246764;28;20230;-82
2022/09/05 01:06:46;;;;;;;3.03;2.70;;;21.50;94.80;;;;;;10247316;29;20230;-82
2022/09/05 01:11:51;;;;;;;2.92;2.53;;;21.50;94.80;;;;;;10247064;29;20229;-82
2022/09/05 01:17:18;;;;;;;2.40;2.15;;;21.50;94.70;;;;;;10245510;28;20257;-83
2022/09/05 01:22:56;;;;;;;2.83;2.50;;;21.50;94.60;;;;;;10246914;28;20280;-82
2022/09/05 01:28:17;;;;;;;3.40;2.60;;;21.50;94.60;;;;;;10224791;28;20319;-83
2022/09/05 01:33:48;;;;;;;3.75;2.55;;;21.50;94.60;;;;;;10246415;29;20258;-82
2022/09/05 01:39:03;;;;;;;3.03;2.72;;;21.50;94.50;;;;;;10244777;28;20605;-83
2022/09/05 01:44:38;;;;;;;2.53;2.33;;;21.50;94.40;;;;;;10240396;28;20246;-82
2022/09/05 01:50:15;;;;;;;3.28;2.50;;;21.50;94.40;;;;;;10253160;28;20289;-82
2022/09/05 01:55:48;;;;;;;2.20;1.98;;;21.50;94.40;;;;;;10252943;28;20296;-82
2022/09/05 02:01:27;;;;;;;2.83;2.53;;;21.50;94.40;;;;;;10252970;28;20230;-83
2022/09/05 02:06:38;;;;;;;2.85;2.30;;;21.40;94.30;;;;;;10252492;28;20260;-82
2022/09/05 02:12:06;;;;;;;2.53;2.33;;;21.40;94.30;;;;;;10235575;28;20265;-82
2022/09/05 02:17:43;;;;;;;2.25;2.05;;;21.40;94.20;;;;;;10252601;29;20254;-83
2022/09/05 02:22:52;;;;;;;4.07;2.67;;;21.40;94.00;;;;;;10229899;29;20686;-83
2022/09/05 02:28:11;;;;;;;2.83;2.17;;;21.40;94.00;;;;;;10234254;28;20578;-82
2022/09/05 02:33:23;;;;;;;1.67;1.58;;;21.40;94.10;;;;;;10235577;29;20266;-82
2022/09/05 02:39:07;;;;;;;2.58;2.38;;;21.40;94.00;;;;;;10251849;28;20233;-83
2022/09/05 02:44:39;;;;;;;2.85;2.28;;;21.30;94.00;;;;;;10207138;29;20281;-82
2022/09/05 02:50:05;;;;;;;2.28;2.08;;;21.40;93.90;;;;;;10251523;29;20663;-83
2022/09/05 02:55:46;;;;;;;2.33;2.10;;;21.40;93.80;;;;;;10236152;28;20677;-82
2022/09/05 03:01:44;;;;;;;4.05;2.40;;;21.40;93.70;;;;;;10220323;28;20682;-82
2022/09/05 03:06:58;;;;;;;2.70;1.88;;;21.40;93.70;;;;;;10198089;28;20620;-82
2022/09/05 03:12:06;;;;;;;2.13;1.92;;;21.40;93.60;;;;;;10249579;29;20214;-82
2022/09/05 03:18:11;;;;;;;1.80;1.70;;;21.40;93.70;;;;;;10250513;29;20261;-82
2022/09/05 03:23:22;;;;;;;6.88;2.47;;;21.30;93.60;;;;;;10034528;29;20247;-82
2022/09/05 03:28:50;;;;;;;2.20;1.77;;;21.30;93.50;;;;;;10056221;29;20372;-82
2022/09/05 03:34:40;;;;;;;2.67;2.35;;;21.30;93.40;;;;;;10088779;29;20762;-82
2022/09/05 03:40:23;;;;;;;2.03;1.80;;;21.30;93.40;;;;;;10049432;29;20305;-82
2022/09/05 03:45:34;;;;;;;2.00;1.80;;;21.30;93.30;;;;;;10047594;29;20236;-82
2022/09/05 03:51:15;;;;;;;4.07;1.90;;;21.40;93.20;;;;;;10048141;29;20245;-82
2022/09/05 03:56:38;;;;;;;2.10;1.90;;;21.30;93.10;;;;;;10051088;29;20707;-82
2022/09/05 04:02:07;;;;;;;2.00;1.80;;;21.30;92.90;;;;;;10164173;29;20294;-82
2022/09/05 04:07:37;;;;;;;2.47;1.90;;;21.30;93.00;;;;;;10156658;29;20294;-83
2022/09/05 04:13:27;;;;;;;2.30;1.65;;;21.30;92.90;;;;;;10216638;28;20304;-83
2022/09/05 04:18:51;;;;;;;3.63;1.73;;;21.30;92.90;;;;;;10246322;28;20206;-84
2022/09/05 04:24:18;;;;;;;2.50;1.60;;;21.30;92.80;;;;;;10247829;29;20242;-84
2022/09/05 04:29:27;;;;;;;2.03;1.52;;;21.30;92.70;;;;;;10248700;28;20262;-84
2022/09/05 04:34:57;;;;;;;2.67;1.80;;;21.30;92.60;;;;;;10229227;29;20254;-84
2022/09/05 04:40:32;;;;;;;2.08;1.83;;;21.30;92.60;;;;;;10247028;28;20230;-83
2022/09/05 04:45:46;;;;;;;2.00;1.42;;;21.30;92.70;;;;;;10247644;28;20234;-83
2022/09/05 04:51:06;;;;;;;3.92;1.35;;;21.30;92.40;;;;;;10247590;29;20257;-84
2022/09/05 04:56:14;;;;;;;2.75;1.33;;;20.70;92.50;;;;;;10247186;28;20242;-84
2022/09/05 05:01:26;;;;;;;3.88;1.30;;;19.70;83.20;;;;;;10228856;29;20241;-84
2022/09/05 05:07:09;;;;;;;6.00;1.00;;;20.30;81.70;;;;;;10232287;28;20746;-84
2022/09/05 05:12:23;;;;;;;2.35;1.08;;;20.50;80.90;;;;;;10246640;29;20234;-84
2022/09/05 05:17:52;;;;;;;4.82;1.00;;;20.70;81.00;;;;;;10245698;28;20261;-84
2022/09/05 05:23:17;;;;;;;5.32;1.25;;;20.80;80.70;;;;;;10238333;28;20233;-84
2022/09/05 05:28:44;;;;;;;2.80;1.38;;;20.90;80.80;;;;;;10253248;28;20352;-83
2022/09/05 05:33:49;;;;;;;5.45;1.40;;;21.00;81.00;;;;;;10253104;29;20234;-84
2022/09/05 05:39:11;;;;;;;2.03;1.10;;;20.90;81.40;;;;;;10236683;28;20289;-84
2022/09/05 05:44:20;;;;;;;2.67;1.20;;;21.00;81.50;;;;;;10236139;29;20210;-84
2022/09/05 05:49:49;;;;;;;4.40;1.25;;;21.10;81.70;;;;;;10246181;29;20218;-84
2022/09/05 05:55:49;;;;;;;2.45;1.10;;;21.10;81.80;;;;;;10239734;28;20243;-84
2022/09/05 06:01:12;;;;;;;1.70;1.23;;;21.20;81.90;;;;;;10124863;29;20287;-84
2022/09/05 06:06:59;;;;;;;3.00;0.90;;;21.10;82.00;;;;;;10126709;29;20240;-84
2022/09/05 06:12:44;;;;;;;42.97;3.13;;;21.20;82.00;;;;;;10129641;29;20295;-85
2022/09/05 06:18:28;;;;;;;2.33;0.82;;;19.90;78.60;;;;;;10129062;29;20256;-84
2022/09/05 06:23:45;;;;;;;5.82;0.88;;;19.90;77.30;;;;;;10129592;29;20252;-82
2022/09/05 06:29:26;;;;;;;3.00;1.10;;;20.30;77.50;;;;;;10130199;29;20266;-82
2022/09/05 06:34:56;;;;;;;2.72;1.17;;;20.70;76.50;;;;;;10241653;28;20262;-82
2022/09/05 06:40:11;;;;;;;2.58;1.15;;;20.60;77.20;;;;;;10250348;29;20269;-83
2022/09/05 06:45:23;;;;;;;2.88;0.85;;;20.70;76.90;;;;;;10249445;29;20264;-82
2022/09/05 06:50:58;;;;;;;3.08;1.10;;;20.30;75.80;;;;;;10276071;28;20670;-82
2022/09/05 06:56:09;;;;;;;4.30;1.63;;;20.50;73.30;;;;;;10167229;29;20267;-82
2022/09/05 07:01:25;;;;;;;6.72;1.63;;;20.70;73.90;;;;;;10148505;29;20295;-83
2022/09/05 07:07:10;;;;;;;12.82;1.58;;;19.50;78.40;;;;;;10109757;29;20688;-83
2022/09/05 07:12:32;;;;;;;6.10;1.25;;;20.90;73.40;;;;;;10122994;29;20658;-82
2022/09/05 07:17:48;;;;;;;5.65;1.27;;;21.40;73.70;;;;;;10130522;29;20303;-82
2022/09/05 07:23:35;;;;;;;10.68;1.83;;;21.60;72.80;;;;;;10114398;29;20244;-86
2022/09/05 07:29:03;;;;;;;4.53;1.63;;;22.20;71.10;;;;;;10112972;29;20356;-87
2022/09/05 07:34:17;;;;;;;6.65;0.90;;;22.40;70.10;;;;;;10224900;29;20266;-87
2022/09/05 07:39:27;;;;;;;6.38;1.30;;;22.70;69.20;;;;;;10230402;28;20253;-86
2022/09/05 07:44:37;;;;;;;4.78;1.02;;;22.90;68.50;;;;;;10228846;28;20268;-86
2022/09/05 07:49:42;;;;;;;5.95;0.90;;;22.80;69.20;;;;;;10238964;29;20560;-86
2022/09/05 07:55:19;;;;;;;5.60;0.80;;;22.80;69.00;;;;;;10231621;28;20272;-84
2022/09/05 08:00:49;;;;;;;4.03;0.98;;;22.90;68.10;;;;;;10226979;29;20233;-85
2022/09/05 08:05:53;;;;;;;1.40;0.50;;;22.60;68.40;;;;;;10227578;29;20257;-83
2022/09/05 08:11:06;;;;;;;2.78;1.02;;;23.10;68.90;;;;;;10228609;28;20241;-83
2022/09/05 08:16:29;;;;;;;2.30;0.80;;;23.30;68.10;;;;;;10228311;29;20293;-83
2022/09/05 08:21:34;;;;;;;5.18;1.00;;;23.40;63.10;;;;;;10241444;28;20277;-84
2022/09/05 08:26:50;;;;;;;2.38;0.45;;;23.40;68.30;;;;;;10230881;29;20294;-83
2022/09/05 08:32:10;;;;;;;2.63;1.25;;;23.40;66.90;;;;;;10216644;29;20261;-83
2022/09/05 08:37:20;;;;;;;2.35;0.80;;;23.50;60.10;;;;;;10211610;29;20278;-83
2022/09/05 08:43:02;;;;;;;2.83;0.68;;;23.20;65.70;;;;;;10245120;28;20613;-84
2022/09/05 08:48:40;;;;;;;0.95;0.60;;;23.40;68.60;;;;;;10226045;29;20286;-84
2022/09/05 08:54:07;;;;;;;3.13;1.15;;;23.40;68.50;;;;;;10230031;29;20229;-83
2022/09/05 08:59:25;;;;;;;1.63;0.70;;;23.30;68.80;;;;;;10225935;29;20246;-83
2022/09/05 09:04:55;;;;;;;1.67;0.63;;;23.60;68.50;;;;;;10225867;29;20218;-84
2022/09/05 09:10:24;;;;;;;1.17;0.60;;;23.50;68.30;;;;;;10224927;29;20289;-83
2022/09/05 09:16:03;;;;;;;7.05;1.77;;;23.50;68.80;;;;;;10225701;29;20302;-81
2022/09/05 09:21:47;;;;;;;1.45;0.73;;;23.40;67.20;;;;;;10224600;29;20294;-81
2022/09/05 09:27:14;;;;;;;2.65;0.93;;;23.50;68.90;;;;;;10069396;29;20248;-81
2022/09/05 09:32:24;;;;;;;1.67;0.88;;;23.60;67.00;;;;;;10070048;29;20281;-82
2022/09/05 09:37:39;;;;;;;1.85;0.70;;;23.60;69.00;;;;;;10077924;29;20316;-82
2022/09/05 09:43:02;;;;;;;2.08;1.10;;;23.50;60.20;;;;;;10075457;29;20240;-82
2022/09/05 09:48:08;;;;;;;1.33;0.70;;;23.30;65.90;;;;;;10070314;29;20241;-82
2022/09/05 09:53:14;;;;;;;1.00;0.45;;;23.60;68.50;;;;;;10053499;29;20731;-82
2022/09/05 09:58:33;;;;;;;0.60;0.50;;;23.00;56.80;;;;;;10063160;29;20255;-82
2022/09/05 10:03:43;;;;;;;3.08;0.50;;;23.50;69.50;;;;;;10182073;29;20227;-81
2022/09/05 10:09:11;;;;;;;1.15;0.70;;;23.30;64.90;;;;;;10207899;29;20230;-81
2022/09/05 10:14:36;;;;;;;0.70;0.52;;;23.50;62.20;;;;;;10192761;29;20238;-82
2022/09/05 10:20:30;;;;;;;0.90;0.43;;;23.50;70.30;;;;;;10214006;29;20330;-82
2022/09/05 10:26:06;;;;;;;1.75;0.70;;;23.60;69.60;;;;;;10225279;29;20246;-83
2022/09/05 10:31:21;;;;;;;2.55;0.50;;;22.80;53.90;;;;;;10201567;29;20258;-83
2022/09/05 10:36:50;;;;;;;1.73;0.60;;;23.00;67.30;;;;;;10195676;29;20644;-83
2022/09/05 10:42:01;;;;;;;0.50;0.50;;;23.00;66.10;;;;;;10212807;29;20231;-82
2022/09/05 10:47:13;;;;;;;2.03;0.55;;;22.80;66.70;;;;;;10212712;29;20258;-83
2022/09/05 10:52:56;;;;;;;11.15;1.60;;;22.60;67.30;;;;;;10214567;28;20270;-86
2022/09/05 10:58:28;;;;;;;7.60;1.10;;;22.60;54.60;;;;;;9905159;28;9999889;-84
2022/09/05 11:03:55;;;;;;;6.00;0.88;;;23.60;52.50;;;;;;10212344;29;20292;-83
2022/09/05 11:09:23;;;;;;;5.60;0.60;;;23.90;50.30;;;;;;10242076;29;20246;-84
2022/09/05 11:14:43;;;;;;;3.97;0.50;;;24.00;52.20;;;;;;10229058;28;20273;-83
2022/09/05 11:19:55;;;;;;;2.85;0.65;;;24.00;52.00;;;;;;10200718;29;20254;-84
2022/09/05 11:25:02;;;;;;;5.80;0.75;;;24.70;52.00;;;;;;10207232;29;20242;-83
2022/09/05 11:30:14;;;;;;;5.35;0.47;;;24.70;47.40;;;;;;10207251;29;20258;-84
2022/09/05 11:36:27;;;;;;;4.95;0.57;;;24.50;51.10;;;;;;10243493;29;20712;-84
2022/09/05 11:42:05;;;;;;;0.68;0.35;;;24.70;52.90;;;;;;10121151;29;20316;-83
2022/09/05 11:47:28;;;;;;;4.22;0.43;;;24.80;51.00;;;;;;10122732;29;20291;-86
2022/09/05 11:53:12;;;;;;;2.30;0.45;;;24.90;52.80;;;;;;10121433;29;20362;-83
2022/09/05 11:58:36;;;;;;;1.23;0.30;;;24.90;53.40;;;;;;10131180;29;20244;-83
2022/09/05 12:04:08;;;;;;;2.38;0.75;;;24.80;53.50;;;;;;10085832;29;20287;-82
2022/09/05 12:09:48;;;;;;;7.03;0.82;;;24.90;52.70;;;;;;10125641;29;20244;-81
2022/09/05 12:15:25;;;;;;;0.47;0.40;;;24.80;47.70;;;;;;10201712;29;20637;-82
2022/09/05 12:20:51;;;;;;;0.60;0.30;;;24.70;54.90;;;;;;10192423;29;20254;-82
2022/09/05 12:26:02;;;;;;;1.13;0.30;;;24.70;54.10;;;;;;10233548;28;20281;-81
2022/09/05 12:31:37;;;;;;;3.33;0.55;;;24.80;50.60;;;;;;10232638;28;20740;-81
2022/09/05 12:37:02;;;;;;;1.33;0.40;;;24.80;54.90;;;;;;10228436;29;20269;-81
2022/09/05 12:42:31;;;;;;;0.85;0.73;;;24.70;44.90;;;;;;10245182;28;20214;-82
2022/09/05 12:48:09;;;;;;;1.23;0.30;;;24.70;55.60;;;;;;10248076;29;20289;-80
2022/09/05 12:53:18;;;;;;;0.80;0.38;;;24.70;54.80;;;;;;10222100;29;20245;-81
2022/09/05 12:58:29;;;;;;;1.65;0.88;;;24.70;52.90;;;;;;10210246;29;20320;-81
2022/09/05 13:04:20;;;;;;;0.55;0.22;;;24.80;56.00;;;;;;10237242;28;20233;-81
2022/09/05 13:09:55;;;;;;;0.28;0.20;;;24.70;49.60;;;;;;10243300;29;20324;-82
2022/09/05 13:15:23;;;;;;;0.38;0.38;;;24.60;56.50;;;;;;10228685;29;21035;-86
2022/09/05 13:20:34;;;;;;;2.85;0.45;;;24.60;56.60;;;;;;10241270;28;20779;-83
2022/09/05 13:25:41;;;;;;;2.92;0.13;;;24.70;52.80;;;;;;10241872;29;20653;-82
2022/09/05 13:31:07;;;;;;;0.93;0.40;;;24.20;50.50;;;;;;10244583;29;20250;-82
2022/09/05 13:36:30;;;;;;;4.30;0.20;;;23.80;39.90;;;;;;10245526;29;20250;-83
2022/09/05 13:41:58;;;;;;;1.05;0.25;;;24.20;43.10;;;;;;10249995;28;20230;-81
2022/09/05 13:47:08;;;;;;;1.63;0.63;;;24.40;45.10;;;;;;10258611;28;20269;-84
2022/09/05 13:52:40;;;;;;;4.57;0.50;;;23.80;45.50;;;;;;10268187;28;20222;-84
2022/09/05 13:57:49;;;;;;;0.73;0.30;;;24.60;47.00;;;;;;10251598;28;20305;-84
2022/09/05 14:03:12;;;;;;;0.82;0.20;;;24.70;53.10;;;;;;10253473;28;20226;-83
2022/09/05 14:08:52;;;;;;;1.10;0.28;;;23.70;45.80;;;;;;10274673;28;20307;-83
2022/09/05 14:14:34;;;;;;;1.88;0.30;;;23.40;43.20;;;;;;10272358;28;20246;-83
2022/09/05 14:25:36;;;;;;;30.70;2.47;;;23.80;44.10;;;;;;10252553;28;20229;-81
2022/09/05 14:30:44;;;;;;;3.45;0.80;;;24.40;65.80;;;;;;10250618;28;20230;-81
2022/09/05 14:36:31;;;;;;;5.40;1.10;;;24.70;47.20;;;;;;10234441;29;20735;-82
2022/09/05 14:42:09;;;;;;;1.73;0.75;;;25.00;65.70;;;;;;10252019;29;20646;-81
2022/09/05 14:47:21;;;;;;;2.78;0.65;;;25.00;63.50;;;;;;10251395;29;20233;-82
2022/09/05 14:52:37;;;;;;;2.55;0.50;;;25.10;61.60;;;;;;10233467;28;20242;-81
2022/09/05 14:57:46;;;;;;;3.28;0.40;;;25.10;59.80;;;;;;10252516;28;20321;-82
2022/09/05 15:03:10;;;;;;;5.57;0.60;;;24.70;53.30;;;;;;10231414;29;20210;-82
2022/09/05 15:08:28;;;;;;;1.17;0.32;;;23.40;61.60;;;;;;10233760;28;20318;-82
2022/09/05 15:14:04;;;;;;;2.28;0.70;;;24.30;59.30;;;;;;10235562;28;20632;-82
2022/09/05 15:19:09;;;;;;;0.80;0.40;;;24.60;60.40;;;;;;10233750;29;20257;-82
2022/09/05 15:24:29;;;;;;;1.30;0.32;;;24.90;61.10;;;;;;10247997;28;20265;-80
2022/09/05 15:29:34;;;;;;;2.05;0.95;;;24.80;61.30;;;;;;9580873;28;9999843;-81
2022/09/05 15:34:37;;;;;;;0.90;0.40;;;24.80;62.90;;;;;;10246718;29;20633;-81
2022/09/05 15:39:40;;;;;;;2.67;0.73;;;24.70;62.10;;;;;;10245668;28;20254;-81
2022/09/05 15:44:43;;;;;;;0.77;0.40;;;24.80;63.60;;;;;;10228455;29;20235;-81
2022/09/05 15:50:12;;;;;;;1.33;0.73;;;24.60;63.60;;;;;;10244214;29;20890;-82
2022/09/05 15:55:26;;;;;;;1.05;0.55;;;24.70;65.50;;;;;;10247515;28;20268;-82
2022/09/05 16:00:31;;;;;;;1.17;0.47;;;24.20;54.10;;;;;;10246504;28;20254;-81
2022/09/05 16:05:35;;;;;;;0.22;0.20;;;24.50;66.20;;;;;;10245355;28;20226;-82
2022/09/05 16:11:25;;;;;;;0.60;0.25;;;24.50;65.70;;;;;;10232755;28;20234;-82
2022/09/05 16:17:35;;;;;;;0.70;0.32;;;24.60;67.40;;;;;;10240070;29;20296;-82
2022/09/05 16:23:30;;;;;;;0.85;0.30;;;24.60;55.00;;;;;;10246498;28;20797;-91
2022/09/05 16:29:09;;;;;;;0.63;0.35;;;23.10;43.70;;;;;;10230721;29;20234;-89
2022/09/05 16:34:33;;;;;;;2.35;0.45;;;23.80;44.90;;;;;;10230889;29;20242;-89
2022/09/05 16:39:52;;;;;;;2.67;0.85;;;24.20;44.70;;;;;;10247975;29;20361;-89
2022/09/05 16:45:15;;;;;;;6.30;0.43;;;24.20;45.80;;;;;;10231068;28;20607;-90
2022/09/05 16:50:17;;;;;;;0.47;0.22;;;24.20;46.30;;;;;;10217410;28;20769;-88
2022/09/05 16:55:43;;;;;;;1.20;0.47;;;24.20;47.10;;;;;;10247760;28;20292;-87
2022/09/05 17:01:04;;;;;;;0.22;0.20;;;24.10;48.00;;;;;;10232673;28;20261;-87
2022/09/05 17:06:22;;;;;;;0.77;0.40;;;24.10;48.70;;;;;;10247533;29;20661;-88
2022/09/05 17:11:31;;;;;;;0.73;0.38;;;24.00;49.50;;;;;;10191071;29;20286;-87
2022/09/05 17:16:45;;;;;;;3.05;0.40;;;23.90;48.80;;;;;;10194843;29;20297;-87
2022/09/05 17:22:03;;;;;;;2.45;0.52;;;23.80;51.10;;;;;;10243093;28;20266;-90
2022/09/05 17:27:28;;;;;;;2.75;0.30;;;23.30;44.20;;;;;;10217356;28;20242;-90
2022/09/05 17:32:59;;;;;;;5.15;0.77;;;19.80;49.10;;;;;;10254487;28;20238;-89
2022/09/05 17:38:03;;;;;;;1.02;0.30;;;22.00;57.80;;;;;;10237163;28;20781;-89
2022/09/05 17:43:25;;;;;;;2.42;0.30;;;22.80;56.00;;;;;;10205778;29;20239;-88
2022/09/05 17:48:45;;;;;;;2.10;0.68;;;23.10;55.50;;;;;;10234495;29;20261;-89
2022/09/05 17:54:14;;;;;;;4.03;0.73;;;23.30;55.40;;;;;;10231234;28;20249;-88
2022/09/05 17:59:17;;;;;;;0.57;0.30;;;23.50;55.40;;;;;;10235026;29;20312;-88
2022/09/05 18:04:51;;;;;;;2.45;0.50;;;23.50;55.60;;;;;;10221837;29;20219;-88
2022/09/05 18:10:11;;;;;;;2.50;0.40;;;23.60;55.70;;;;;;10200060;29;20246;-88
2022/09/05 18:15:30;;;;;;;0.52;0.35;;;23.60;56.00;;;;;;10197458;29;20243;-87
2022/09/05 18:20:40;;;;;;;1.30;0.52;;;23.60;56.30;;;;;;10213344;29;20301;-88
2022/09/05 18:26:16;;;;;;;0.40;0.40;;;23.60;56.60;;;;;;10215379;29;20289;-88
2022/09/05 18:31:37;;;;;;;0.85;0.43;;;23.60;56.70;;;;;;10223462;29;20230;-88
2022/09/05 18:36:45;;;;;;;1.02;0.47;;;23.40;57.50;;;;;;10196231;29;20239;-89
2022/09/05 18:42:05;;;;;;;2.17;0.60;;;23.20;58.30;;;;;;10202887;29;20238;-88
2022/09/05 18:47:44;;;;;;;0.90;0.47;;;23.20;58.80;;;;;;10233847;29;20249;-88
2022/09/05 18:52:58;;;;;;;0.88;0.52;;;23.10;59.30;;;;;;10216933;28;20198;-88
2022/09/05 18:58:24;;;;;;;0.63;0.40;;;23.10;59.70;;;;;;10222694;29;20258;-89
2022/09/05 19:03:30;;;;;;;2.92;0.60;;;23.00;60.00;;;;;;10209478;29;20195;-88
2022/09/05 19:08:40;;;;;;;2.83;1.02;;;23.00;60.40;;;;;;10223517;28;20245;-88
2022/09/05 19:13:46;;;;;;;2.47;0.40;;;23.00;60.60;;;;;;10195230;29;20239;-88
2022/09/05 19:19:11;;;;;;;0.95;0.50;;;22.90;60.90;;;;;;10198466;29;20278;-88
2022/09/05 19:24:19;;;;;;;1.85;0.75;;;22.90;61.20;;;;;;10216171;28;20270;-88
2022/09/05 19:29:27;;;;;;;0.73;0.47;;;22.90;61.40;;;;;;10220312;28;20620;-88
2022/09/05 19:34:49;;;;;;;1.13;0.50;;;22.90;61.60;;;;;;10211812;29;20297;-89
2022/09/05 19:40:19;;;;;;;0.90;0.50;;;22.80;61.80;;;;;;10192673;29;20262;-88
2022/09/05 19:45:42;;;;;;;1.63;0.75;;;22.70;62.10;;;;;;10215269;29;20739;-88
2022/09/05 19:51:13;;;;;;;0.95;0.50;;;22.80;62.40;;;;;;10204167;29;20238;-88
2022/09/05 19:56:23;;;;;;;1.88;0.50;;;22.70;62.60;;;;;;10213041;28;20205;-88
2022/09/05 20:01:26;;;;;;;2.30;0.80;;;22.70;62.80;;;;;;10197498;29;20692;-88
2022/09/05 20:06:29;;;;;;;0.75;0.45;;;22.70;63.00;;;;;;10209341;28;20677;-88
2022/09/05 20:11:33;;;;;;;1.10;0.70;;;22.30;65.50;;;;;;10219904;29;20271;-88
2022/09/05 20:16:48;;;;;;;0.65;0.40;;;22.50;64.70;;;;;;10219305;29;20234;-88
2022/09/05 20:21:52;;;;;;;0.70;0.40;;;22.60;64.50;;;;;;10231420;29;20274;-87
2022/09/05 20:26:59;;;;;;;1.80;0.60;;;22.60;64.50;;;;;;10226152;29;20292;-87
2022/09/05 20:32:03;;;;;;;1.38;0.82;;;22.60;64.60;;;;;;10193289;29;20247;-87
2022/09/05 20:37:09;;;;;;;1.25;0.70;;;22.60;64.70;;;;;;10212931;29;20242;-87
2022/09/05 20:42:32;;;;;;;2.45;0.50;;;22.60;65.00;;;;;;10194598;29;20645;-87
2022/09/05 20:47:55;;;;;;;1.10;0.52;;;22.60;65.20;;;;;;10231173;29;20304;-87
2022/09/05 20:53:28;;;;;;;0.82;0.47;;;22.60;65.50;;;;;;10227581;29;20238;-88
2022/09/05 20:58:54;;;;;;;1.05;0.43;;;22.50;65.70;;;;;;10201424;29;20262;-87
2022/09/05 21:03:59;;;;;;;0.55;0.50;;;22.70;65.90;;;;;;10236404;28;20242;-87
2022/09/05 21:09:14;;;;;;;1.60;0.68;;;22.50;66.00;;;;;;10245006;29;20289;-87
2022/09/05 21:14:27;;;;;;;1.33;0.75;;;22.50;66.20;;;;;;10207869;29;20672;-87
2022/09/05 21:19:35;;;;;;;0.88;0.60;;;22.50;66.50;;;;;;10241503;28;20266;-88
2022/09/05 21:24:37;;;;;;;0.60;0.40;;;22.40;66.70;;;;;;10194769;29;20215;-88
2022/09/05 21:29:40;;;;;;;1.70;0.60;;;22.40;66.90;;;;;;10214980;29;20297;-87
2022/09/05 21:34:50;;;;;;;0.52;0.50;;;22.40;67.10;;;;;;10218134;29;20300;-87
2022/09/05 21:39:54;;;;;;;2.90;0.60;;;22.40;67.30;;;;;;10195459;29;20259;-88
2022/09/05 21:45:02;;;;;;;2.67;0.75;;;22.30;67.30;;;;;;10191440;29;20275;-88
2022/09/05 21:50:26;;;;;;;1.17;0.70;;;22.30;67.90;;;;;;10223917;29;20959;-87
2022/09/05 21:55:34;;;;;;;0.70;0.63;;;22.30;67.90;;;;;;10224871;29;20242;-87
2022/09/05 22:00:56;;;;;;;0.75;0.63;;;22.30;68.90;;;;;;10212831;29;20258;-87
2022/09/05 22:05:59;;;;;;;1.40;0.75;;;22.30;68.50;;;;;;10210069;29;20667;-87
2022/09/05 22:11:10;;;;;;;0.80;0.60;;;22.30;68.70;;;;;;10223120;29;20293;-88
2022/09/05 22:16:14;;;;;;;0.60;0.52;;;22.30;68.90;;;;;;10209940;28;20214;-88
2022/09/05 22:21:20;;;;;;;2.28;0.75;;;22.30;69.00;;;;;;10265361;28;20305;-88
2022/09/05 22:26:43;;;;;;;1.23;0.73;;;22.30;69.20;;;;;;10230512;28;20265;-88
2022/09/05 22:32:06;;;;;;;1.58;0.75;;;22.00;68.20;;;;;;10235678;29;20258;-87
2022/09/05 22:37:09;;;;;;;1.15;0.65;;;22.10;70.20;;;;;;10210364;29;20234;-87
2022/09/05 22:42:11;;;;;;;0.80;0.50;;;22.20;70.30;;;;;;10237135;28;20254;-88
2022/09/05 22:47:14;;;;;;;1.38;0.60;;;22.10;70.30;;;;;;10235981;28;20267;-87
2022/09/05 22:52:16;;;;;;;1.02;0.75;;;22.10;70.60;;;;;;10249207;29;20273;-88
2022/09/05 22:57:19;;;;;;;0.85;0.57;;;22.10;70.70;;;;;;10234501;28;20269;-88
2022/09/05 23:02:21;;;;;;;1.38;0.73;;;22.10;70.90;;;;;;10214416;29;20259;-87
2022/09/05 23:07:24;;;;;;;1.00;0.70;;;22.10;71.10;;;;;;10227482;29;20230;-88
2022/09/05 23:12:26;;;;;;;0.90;0.80;;;22.10;71.20;;;;;;10225266;28;20675;-87
2022/09/05 23:17:29;;;;;;;0.73;0.60;;;22.10;71.50;;;;;;10214716;29;20274;-88
2022/09/05 23:22:34;;;;;;;1.15;0.65;;;22.00;71.50;;;;;;10202625;29;20265;-87
2022/09/05 23:27:37;;;;;;;2.45;0.90;;;22.00;71.70;;;;;;10242366;28;20270;-87
2022/09/05 23:32:47;;;;;;;0.80;0.70;;;22.00;71.80;;;;;;10213716;28;20222;-87
2022/09/05 23:37:49;;;;;;;1.00;0.60;;;22.00;72.00;;;;;;10247161;28;20206;-88
2022/09/05 23:42:57;;;;;;;1.67;0.80;;;22.00;72.20;;;;;;10223976;29;20277;-87
2022/09/05 23:48:00;;;;;;;1.13;1.00;;;22.00;72.50;;;;;;10212119;29;20210;-87
2022/09/05 23:53:03;;;;;;;0.70;0.60;;;22.00;72.50;;;;;;10220544;29;20207;-87
2022/09/05 23:58:06;;;;;;;2.90;0.93;;;22.00;72.50;;;;;;10192653;29;20239;-87
